PST,Max TemperatureF,Mean TemperatureF,Min TemperatureF,Max Dew PointF,MeanDew PointF,Min DewpointF,Max Humidity, Mean Humidity, Min Humidity, Max Sea Level PressureIn, Mean Sea Level PressureIn, Min Sea Level PressureIn, Max VisibilityMiles, Mean VisibilityMiles, Min VisibilityMiles, Max Wind SpeedMPH, Mean Wind SpeedMPH, Max Gust SpeedMPH,PrecipitationIn, CloudCover, Events, WindDirDegrees
2014-1-1,67,52,37,50,42,34,89,69,48,30.17,30.12,30.07,10,10,9,8,3,10,0.00,0,,149
2014-1-2,74,59,44,44,35,27,89,56,23,30.12,30.07,30.02,10,10,10,10,3,16,0.00,0,,219
2014-1-3,64,53,42,53,43,31,93,66,39,30.06,30.00,29.95,10,8,5,12,3,14,0.00,0,,98
2014-1-4,64,53,42,52,46,40,100,79,57,30.06,29.99,29.95,9,4,0,8,2,12,0.00,2,Fog,24
2014-1-5,77,58,38,41,15,-1,92,49,5,30.19,30.12,30.06,10,8,3,24,7,34,0.00,0,,72
2014-1-6,79,62,45,23,8,-1,28,17,6,30.25,30.17,30.14,10,10,10,26,12,31,0.00,0,,76
2014-1-7,68,55,41,53,33,15,86,53,20,30.17,30.11,30.08,10,10,9,10,2,,0.00,0,,276
2014-1-8,65,53,40,53,44,30,93,67,40,30.15,30.09,30.05,10,10,8,12,4,15,0.00,0,,120
2014-1-9,64,53,41,52,46,39,93,77,60,30.16,30.07,30.01,10,8,3,7,3,,0.00,2,,127
2014-1-10,67,54,41,53,44,35,89,71,52,30.15,30.10,30.05,10,9,6,7,3,12,0.00,0,,168
2014-1-11,69,55,41,51,45,38,93,68,43,30.20,30.12,30.07,10,10,9,13,3,15,0.00,0,,60
2014-1-12,76,60,43,45,35,21,86,51,15,30.19,30.12,30.06,10,10,10,23,8,36,0.00,0,,48
2014-1-13,78,70,62,17,15,13,19,14,8,30.35,30.29,30.21,10,10,10,30,19,40,0.00,0,,69
2014-1-14,85,70,55,18,11,7,19,12,5,30.35,30.29,30.25,10,10,10,30,15,40,0.00,0,,68
2014-1-15,87,74,60,37,12,7,39,22,5,30.26,30.20,30.14,10,10,10,29,16,46,0.00,0,,64
2014-1-16,86,70,54,14,4,-4,16,10,3,30.17,30.11,30.07,10,10,10,32,16,43,0.00,0,,61
2014-1-17,87,68,49,39,15,2,38,21,4,30.14,30.10,30.06,10,10,10,22,10,26,0.00,0,,74
2014-1-18,77,62,47,48,31,16,60,41,21,30.12,30.07,30.03,10,10,9,9,3,,0.00,0,,250
2014-1-19,73,57,41,46,32,23,60,43,25,30.14,30.10,30.06,10,10,7,10,2,13,0.00,0,,170
2014-1-20,76,57,38,48,34,26,83,51,19,30.20,30.15,30.11,10,10,8,12,2,,0.00,0,,294
2014-1-21,84,65,45,54,34,11,65,36,7,30.18,30.13,30.08,10,10,10,18,4,23,0.00,0,,51
2014-1-22,71,58,44,53,43,31,93,64,35,30.07,29.98,29.92,10,9,5,12,3,15,0.00,0,,208
2014-1-23,71,55,39,52,42,17,93,57,21,30.09,29.98,29.91,10,8,5,21,6,26,0.00,0,,289
2014-1-24,76,65,54,54,33,16,80,46,11,30.23,30.18,30.09,10,10,8,24,11,31,0.00,0,,78
2014-1-25,76,63,49,55,45,26,86,52,17,30.22,30.18,30.14,10,10,7,18,5,,0.00,1,,211
2014-1-26,65,56,46,55,45,36,86,63,39,30.17,30.12,30.06,10,10,7,12,2,13,T,4,Rain,210
2014-1-27,68,56,44,52,47,42,93,69,45,30.12,30.08,30.04,10,10,8,13,3,,0.00,0,,203
2014-1-28,66,54,41,53,47,38,89,74,59,30.16,30.10,30.07,10,9,7,12,3,14,0.00,0,,140
2014-1-29,67,56,45,55,51,44,93,80,67,30.11,30.02,29.94,10,7,2,10,4,,0.00,2,,283
2014-1-30,60,57,53,55,52,50,93,83,72,29.99,29.93,29.87,10,5,1,14,5,15,0.01,7,Rain,248
2014-1-31,65,54,43,50,41,26,93,60,27,30.02,29.95,29.87,10,10,10,15,4,,0.00,1,,7